Time;durP1;ratioP1;P1;durP2;ratioP2;P2;SDS_P1;SDS_P2;PMS_P1;PMS_P2;Temp;Humidity;BMP_temperature;BMP_pressure;BME280_temperature;BME280_humidity;BME280_pressure;Samples;Min_cycle;Max_cycle;Signal;HPM_P1;HPM_P2
2023/06/15 00:00:49;;;;;;;6.10;2.80;;;14.60;99.90;;;;;;5135914;27;20046;-25
2023/06/15 00:03:16;;;;;;;15.32;4.05;;;14.60;99.90;;;;;;5135345;27;20111;-25
2023/06/15 00:05:41;;;;;;;7.05;3.42;;;14.60;99.90;;;;;;5117253;27;20047;-25
2023/06/15 00:08:07;;;;;;;6.20;2.90;;;14.60;99.90;;;;;;5135269;27;20503;-26
2023/06/15 00:10:33;;;;;;;7.90;3.22;;;14.60;99.90;;;;;;5100132;27;20602;-25
2023/06/15 00:12:59;;;;;;;5.68;2.80;;;14.70;99.90;;;;;;5117055;27;20091;-25
2023/06/15 00:15:27;;;;;;;7.57;2.58;;;14.60;99.90;;;;;;5135939;27;20129;-25
2023/06/15 00:17:53;;;;;;;3.63;2.40;;;14.60;99.90;;;;;;5135016;27;20040;-25
2023/06/15 00:20:21;;;;;;;11.07;4.20;;;14.60;99.90;;;;;;5135089;27;20042;-26
2023/06/15 00:22:49;;;;;;;8.43;3.40;;;14.60;99.90;;;;;;5135022;27;20484;-25
2023/06/15 00:25:15;;;;;;;5.38;2.95;;;14.60;99.90;;;;;;5134917;27;20043;-25
2023/06/15 00:27:42;;;;;;;6.97;3.40;;;14.60;99.90;;;;;;5135504;27;20039;-25
2023/06/15 00:30:11;;;;;;;6.75;3.63;;;14.60;99.90;;;;;;5135523;27;20487;-26
2023/06/15 00:32:37;;;;;;;5.28;3.00;;;14.70;99.90;;;;;;5134891;27;20039;-25
2023/06/15 00:35:04;;;;;;;5.20;3.03;;;14.70;99.90;;;;;;5116826;27;20051;-25
2023/06/15 00:37:30;;;;;;;5.68;3.47;;;14.60;99.90;;;;;;5116537;28;20036;-25
2023/06/15 00:39:56;;;;;;;5.75;3.10;;;14.60;99.90;;;;;;5134582;27;20043;-24
2023/06/15 00:42:21;;;;;;;7.95;3.50;;;14.60;99.90;;;;;;5134756;27;20055;-25
2023/06/15 00:44:47;;;;;;;8.60;3.70;;;14.60;99.90;;;;;;5134768;27;20050;-25
2023/06/15 00:47:17;;;;;;;5.07;3.30;;;14.60;99.90;;;;;;5134717;27;20069;-25
2023/06/15 00:49:44;;;;;;;4.78;3.17;;;14.60;99.90;;;;;;5134724;27;20126;-25
2023/06/15 00:52:12;;;;;;;10.90;3.75;;;14.60;99.90;;;;;;5116401;28;20128;-25
2023/06/15 00:54:40;;;;;;;10.70;2.60;;;14.50;99.90;;;;;;5134895;28;20043;-25
2023/06/15 00:57:08;;;;;;;7.38;3.25;;;14.50;99.90;;;;;;5117181;28;20043;-25
2023/06/15 00:59:35;;;;;;;5.45;3.00;;;14.40;99.90;;;;;;5134873;28;20121;-25
2023/06/15 01:02:03;;;;;;;5.88;3.03;;;14.40;99.90;;;;;;5134571;28;20051;-25
2023/06/15 01:04:29;;;;;;;6.50;3.10;;;14.30;99.90;;;;;;5116679;28;20100;-25
2023/06/15 01:07:04;;;;;;;8.75;3.20;;;14.20;99.90;;;;;;5135110;28;20389;-25
2023/06/15 01:09:35;;;;;;;5.72;2.90;;;14.10;99.90;;;;;;5135108;27;20422;-25
2023/06/15 01:12:05;;;;;;;6.57;3.05;;;14.10;99.90;;;;;;5139047;27;20054;-25
2023/06/15 01:14:32;;;;;;;5.32;3.42;;;14.10;99.90;;;;;;5121094;27;20084;-25
2023/06/15 01:17:05;;;;;;;7.07;3.03;;;14.10;1.00;;;;;;5139444;27;20039;-25
2023/06/15 01:19:34;;;;;;;;;;;14.10;1.00;;;;;;5138939;27;20035;-25
2023/06/15 01:22:07;;;;;;;6.85;3.30;;;14.10;1.00;;;;;;5138537;27;19945;-25
2023/06/15 01:24:38;;;;;;;6.38;3.47;;;14.10;1.00;;;;;;5138720;27;20043;-25
2023/06/15 01:27:04;;;;;;;6.40;2.97;;;14.10;1.00;;;;;;5139086;27;20123;-25
2023/06/15 01:29:35;;;;;;;5.93;3.28;;;14.10;1.00;;;;;;5138351;27;20569;-25
2023/06/15 01:32:02;;;;;;;6.75;3.75;;;14.10;1.00;;;;;;5120078;27;20082;-25
2023/06/15 01:34:28;;;;;;;4.47;3.15;;;14.00;1.00;;;;;;5138247;27;20053;-25
2023/06/15 01:36:53;;;;;;;11.82;3.70;;;14.00;1.00;;;;;;5139024;27;20039;-25
2023/06/15 01:39:19;;;;;;;7.10;3.22;;;14.00;1.00;;;;;;5138100;27;20160;-26
2023/06/15 01:41:45;;;;;;;7.55;4.28;;;14.00;1.00;;;;;;5137984;27;20077;-25
2023/06/15 01:44:12;;;;;;;4.70;3.03;;;14.00;1.00;;;;;;5138097;27;20370;-25
2023/06/15 01:46:38;;;;;;;8.40;3.97;;;14.00;1.00;;;;;;5138021;27;20544;-25
2023/06/15 01:49:04;;;;;;;5.93;3.47;;;14.00;1.00;;;;;;5119773;27;20042;-25
2023/06/15 01:51:30;;;;;;;9.60;3.50;;;14.00;1.00;;;;;;5102861;27;20472;-25
2023/06/15 01:53:56;;;;;;;4.68;3.45;;;14.00;1.00;;;;;;5137896;27;20047;-25
2023/06/15 01:56:23;;;;;;;6.18;3.45;;;13.90;1.00;;;;;;5138411;27;20042;-25
2023/06/15 01:58:49;;;;;;;5.68;3.42;;;13.90;1.00;;;;;;5137718;27;20043;-26
2023/06/15 02:01:15;;;;;;;7.35;4.18;;;13.90;1.00;;;;;;5119959;27;20127;-25
2023/06/15 02:03:40;;;;;;;8.43;4.00;;;13.90;1.00;;;;;;5102246;27;20134;-25
2023/06/15 02:06:06;;;;;;;10.13;4.22;;;13.90;1.00;;;;;;5119586;27;20047;-25
2023/06/15 02:08:32;;;;;;;6.18;3.60;;;13.90;1.00;;;;;;5137586;27;20120;-25
2023/06/15 02:10:58;;;;;;;7.88;3.92;;;13.90;1.00;;;;;;5120318;27;20369;-26
2023/06/15 02:13:24;;;;;;;7.80;3.80;;;13.90;1.00;;;;;;5102460;27;20112;-25
2023/06/15 02:15:49;;;;;;;8.45;3.95;;;13.80;1.00;;;;;;5138338;27;20043;-25
2023/06/15 02:18:16;;;;;;;6.10;3.85;;;13.70;20.80;;;;;;5137347;27;20491;-25
2023/06/15 02:20:43;;;;;;;6.45;3.65;;;13.60;1.00;;;;;;5119279;27;20389;-25
2023/06/15 02:23:10;;;;;;;6.60;4.00;;;13.30;1.00;;;;;;5136382;27;20047;-25
2023/06/15 02:25:37;;;;;;;4.97;3.85;;;13.10;1.00;;;;;;5137323;27;20043;-25
2023/06/15 02:28:03;;;;;;;7.18;4.15;;;12.90;1.00;;;;;;5137295;27;20039;-25
2023/06/15 02:30:29;;;;;;;6.57;4.10;;;12.70;1.30;;;;;;5102357;27;20104;-25
2023/06/15 02:32:55;;;;;;;8.95;4.15;;;12.60;18.00;;;;;;5137178;27;20043;-25
2023/06/15 02:35:21;;;;;;;9.43;4.22;;;12.50;24.30;;;;;;5119074;27;20122;-25
2023/06/15 02:37:47;;;;;;;6.25;4.30;;;12.40;81.70;;;;;;5137257;27;20050;-25
2023/06/15 02:40:13;;;;;;;13.27;4.75;;;12.30;99.90;;;;;;5136772;27;20530;-23
2023/06/15 02:42:39;;;;;;;11.80;5.53;;;12.20;99.90;;;;;;5137584;27;20090;-25
2023/06/15 02:45:07;;;;;;;8.45;4.80;;;12.00;99.90;;;;;;5137200;27;20043;-25
2023/06/15 02:47:35;;;;;;;6.32;4.03;;;11.90;99.90;;;;;;5118693;27;20043;-25
2023/06/15 02:50:01;;;;;;;6.55;4.80;;;11.70;99.90;;;;;;5118588;27;20046;-26
2023/06/15 02:52:27;;;;;;;8.70;4.45;;;11.40;99.90;;;;;;5118437;27;20051;-26
2023/06/15 02:54:53;;;;;;;7.68;4.40;;;11.20;99.90;;;;;;5136762;27;20035;-26
2023/06/15 02:57:18;;;;;;;12.13;4.63;;;11.00;99.90;;;;;;5137425;27;20042;-26
2023/06/15 02:59:44;;;;;;;9.60;4.72;;;10.80;99.90;;;;;;5136645;27;20476;-26
2023/06/15 03:02:10;;;;;;;7.43;4.72;;;10.70;99.90;;;;;;5118633;27;20103;-26
2023/06/15 03:04:44;;;;;;;6.70;4.28;;;10.60;99.90;;;;;;5137165;27;20050;-26
2023/06/15 03:07:11;;;;;;;10.50;5.15;;;10.60;99.90;;;;;;5137465;27;20100;-26
2023/06/15 03:09:36;;;;;;;8.00;4.90;;;10.50;99.90;;;;;;5119124;27;20089;-27
2023/06/15 03:12:03;;;;;;;6.75;4.93;;;10.50;99.90;;;;;;5118766;27;20070;-26
2023/06/15 03:14:28;;;;;;;10.13;5.53;;;10.50;99.90;;;;;;5136218;27;20039;-26
2023/06/15 03:16:55;;;;;;;7.82;5.00;;;10.50;99.90;;;;;;5117821;27;20042;-26
2023/06/15 03:19:21;;;;;;;7.57;5.22;;;10.50;99.90;;;;;;5117784;27;20054;-26
2023/06/15 03:21:47;;;;;;;9.70;5.30;;;10.50;99.90;;;;;;5100731;27;20055;-26
2023/06/15 03:24:13;;;;;;;8.75;5.78;;;10.50;99.90;;;;;;5136021;27;20047;-26
2023/06/15 03:26:43;;;;;;;10.35;5.32;;;10.40;99.90;;;;;;5136027;27;20047;-27
2023/06/15 03:29:09;;;;;;;7.80;5.22;;;10.40;99.90;;;;;;5135903;27;20480;-27
2023/06/15 03:31:40;;;;;;;8.45;5.03;;;10.40;99.90;;;;;;5136769;27;20078;-26
2023/06/15 03:34:10;;;;;;;12.38;5.57;;;10.40;99.90;;;;;;5135951;27;20047;-26
2023/06/15 03:36:36;;;;;;;9.80;5.68;;;10.40;99.90;;;;;;5117628;27;20047;-27
2023/06/15 03:39:06;;;;;;;9.52;5.55;;;10.40;99.90;;;;;;5117354;27;20050;-26
2023/06/15 03:41:33;;;;;;;10.80;6.20;;;10.40;99.90;;;;;;5136073;27;20057;-26
2023/06/15 03:43:59;;;;;;;10.13;5.47;;;10.40;99.90;;;;;;5118332;27;20054;-26
2023/06/15 03:46:25;;;;;;;7.00;5.15;;;10.40;99.90;;;;;;5117311;27;20039;-26
2023/06/15 03:48:50;;;;;;;8.65;5.28;;;10.30;99.90;;;;;;5117329;27;20096;-26
2023/06/15 03:51:16;;;;;;;10.30;5.13;;;10.30;99.90;;;;;;5135594;27;20047;-26
2023/06/15 03:53:42;;;;;;;9.65;5.47;;;10.20;99.90;;;;;;5135458;27;20050;-26
2023/06/15 03:56:08;;;;;;;7.93;6.00;;;10.20;99.90;;;;;;5135478;27;20054;-27
2023/06/15 03:58:34;;;;;;;8.98;6.55;;;10.30;99.90;;;;;;5135329;27;20043;-26
2023/06/15 04:01:01;;;;;;;14.10;7.05;;;10.40;99.90;;;;;;5101249;27;20044;-26
2023/06/15 04:03:27;;;;;;;13.30;6.97;;;10.40;99.90;;;;;;5083479;27;20050;-27
2023/06/15 04:05:54;;;;;;;9.80;6.68;;;10.50;99.90;;;;;;5135317;27;20047;-26
2023/06/15 04:08:20;;;;;;;8.95;6.90;;;10.60;99.90;;;;;;5135251;27;20035;-26
2023/06/15 04:10:45;;;;;;;9.45;6.25;;;10.70;99.90;;;;;;5135663;27;20043;-27
2023/06/15 04:13:11;;;;;;;9.13;6.68;;;10.70;99.90;;;;;;5134998;27;20088;-26
2023/06/15 04:15:37;;;;;;;10.50;6.55;;;10.80;99.90;;;;;;5134997;27;20059;-26
2023/06/15 04:18:03;;;;;;;10.05;7.00;;;10.80;99.90;;;;;;5134564;27;20035;-26
2023/06/15 04:20:30;;;;;;;8.60;7.10;;;10.90;99.90;;;;;;5134935;27;20051;-26
2023/06/15 04:22:58;;;;;;;12.65;7.13;;;11.00;99.90;;;;;;5134972;27;20065;-26
2023/06/15 04:25:27;;;;;;;9.90;6.60;;;11.10;99.90;;;;;;5116471;27;20047;-26
2023/06/15 04:27:53;;;;;;;9.90;7.72;;;11.20;99.90;;;;;;5117398;27;20047;-26
2023/06/15 04:30:24;;;;;;;10.57;7.43;;;11.30;99.90;;;;;;5116439;27;20049;-26
2023/06/15 04:32:57;;;;;;;9.48;7.03;;;11.40;99.90;;;;;;5135390;27;20051;-26
2023/06/15 04:35:24;;;;;;;14.57;8.07;;;11.50;99.90;;;;;;5135017;27;20142;-26
2023/06/15 04:37:52;;;;;;;11.48;7.53;;;11.60;99.90;;;;;;5116454;27;20085;-26
2023/06/15 04:40:20;;;;;;;11.32;8.32;;;11.80;99.90;;;;;;5134375;27;20047;-26
2023/06/15 04:42:46;;;;;;;9.40;8.00;;;11.90;99.90;;;;;;5135493;27;20130;-27
2023/06/15 04:45:12;;;;;;;10.10;8.13;;;12.10;99.90;;;;;;5134198;27;20058;-26
2023/06/15 04:47:37;;;;;;;9.75;8.20;;;12.10;99.90;;;;;;5134851;27;20043;-26
2023/06/15 04:50:04;;;;;;;10.10;7.82;;;12.20;99.90;;;;;;5134539;27;20471;-26
2023/06/15 04:52:29;;;;;;;13.48;7.78;;;12.30;99.90;;;;;;5134871;28;20139;-26
2023/06/15 04:54:55;;;;;;;12.60;8.10;;;12.40;99.90;;;;;;5134948;28;20431;-27
2023/06/15 04:57:21;;;;;;;12.48;7.68;;;12.70;99.90;;;;;;5135291;28;20047;-26
2023/06/15 04:59:47;;;;;;;10.55;7.35;;;13.20;99.90;;;;;;5099801;28;20488;-26
2023/06/15 05:02:12;;;;;;;10.70;6.15;;;13.60;99.90;;;;;;5116546;28;20043;-26
2023/06/15 05:04:38;;;;;;;9.38;5.78;;;14.00;99.90;;;;;;5117251;28;20049;-27
2023/06/15 05:07:04;;;;;;;9.27;4.93;;;14.60;99.90;;;;;;5134411;28;20044;-26
2023/06/15 05:09:30;;;;;;;9.77;5.57;;;15.20;99.90;;;;;;5134671;28;20043;-26
2023/06/15 05:11:56;;;;;;;7.75;5.20;;;15.50;99.90;;;;;;5134428;28;20397;-26
2023/06/15 05:14:22;;;;;;;8.02;4.88;;;15.80;99.90;;;;;;5134911;28;20046;-26
2023/06/15 05:16:48;;;;;;;9.63;4.85;;;16.10;99.90;;;;;;5116299;28;20043;-26
2023/06/15 05:19:14;;;;;;;7.00;4.15;;;16.80;99.90;;;;;;5116540;28;20036;-26
2023/06/15 05:21:40;;;;;;;7.47;4.30;;;17.10;99.90;;;;;;5134650;28;20058;-27
2023/06/15 05:24:06;;;;;;;11.07;4.45;;;17.70;99.90;;;;;;5134358;27;20039;-27
2023/06/15 05:26:32;;;;;;;6.38;3.80;;;18.20;99.90;;;;;;5134323;28;20043;-27
2023/06/15 05:28:57;;;;;;;5.57;3.95;;;18.80;81.00;;;;;;5116438;28;20120;-27
2023/06/15 05:31:23;;;;;;;6.00;3.88;;;19.60;1.00;;;;;;5134753;28;20071;-27
2023/06/15 05:33:49;;;;;;;6.63;3.55;;;;;;;;;;5134239;28;20085;-25
2023/06/15 05:36:15;;;;;;;6.93;3.65;;;20.90;99.90;;;;;;5116072;28;20043;-27
2023/06/15 05:38:41;;;;;;;6.25;3.90;;;21.30;1.00;;;;;;5116273;28;20040;-27
2023/06/15 05:41:06;;;;;;;8.63;3.75;;;21.60;99.90;;;;;;5134149;28;20055;-27
2023/06/15 05:43:32;;;;;;;8.98;3.58;;;21.90;99.90;;;;;;5116001;28;20048;-27
2023/06/15 05:45:58;;;;;;;5.75;4.65;;;22.10;1.00;;;;;;5099086;28;20567;-27
2023/06/15 05:48:23;;;;;;;8.73;3.38;;;22.30;99.90;;;;;;5134108;28;20126;-27
2023/06/15 05:50:49;;;;;;;7.10;3.63;;;22.60;1.00;;;;;;5134867;28;20039;-26
2023/06/15 05:53:15;;;;;;;5.97;3.10;;;22.90;99.90;;;;;;5099004;28;20050;-27
2023/06/15 05:55:41;;;;;;;5.15;3.42;;;23.10;99.90;;;;;;5115774;27;20062;-27
2023/06/15 05:58:06;;;;;;;7.43;3.75;;;23.20;55.20;;;;;;5118172;27;20103;-26
2023/06/15 06:00:32;;;;;;;5.65;3.40;;;23.50;1.00;;;;;;5137679;27;20050;-26
2023/06/15 06:02:58;;;;;;;6.72;3.72;;;23.80;99.90;;;;;;5137597;27;20049;-26
2023/06/15 06:05:24;;;;;;;10.13;4.30;;;23.90;99.90;;;;;;5138178;27;20082;-27
2023/06/15 06:07:50;;;;;;;4.53;3.70;;;24.20;99.90;;;;;;5137606;27;20075;-27
2023/06/15 06:10:19;;;;;;;7.93;2.90;;;24.50;57.10;;;;;;5119760;27;20051;-26
2023/06/15 06:12:45;;;;;;;7.00;3.40;;;24.60;1.00;;;;;;5138003;27;20047;-27
2023/06/15 06:15:11;;;;;;;4.45;2.90;;;24.90;99.90;;;;;;5119293;27;20046;-27
2023/06/15 06:17:37;;;;;;;4.28;2.42;;;24.60;99.90;;;;;;5085123;27;20438;-26
2023/06/15 06:20:03;;;;;;;5.07;2.63;;;25.10;99.90;;;;;;5137604;27;20043;-28
2023/06/15 06:22:29;;;;;;;7.70;3.20;;;25.50;99.90;;;;;;5137286;27;20508;-26
2023/06/15 06:24:55;;;;;;;4.60;2.70;;;25.90;99.90;;;;;;5118916;27;20043;-27
2023/06/15 06:27:20;;;;;;;5.20;2.90;;;25.90;29.40;;;;;;5118959;27;20477;-27
2023/06/15 06:29:46;;;;;;;3.08;1.95;;;25.90;1.00;;;;;;5137262;27;20050;-27
2023/06/15 06:32:12;;;;;;;5.82;2.25;;;26.40;1.00;;;;;;5137093;27;20066;-27
2023/06/15 06:34:37;;;;;;;6.65;2.70;;;26.60;1.00;;;;;;5118762;27;20135;-29
2023/06/15 06:37:04;;;;;;;4.70;2.17;;;26.70;1.00;;;;;;5137276;27;20085;-29
2023/06/15 06:39:30;;;;;;;6.30;2.00;;;27.10;99.90;;;;;;5136933;27;20074;-29
2023/06/15 06:41:56;;;;;;;3.72;2.00;;;27.20;99.90;;;;;;5137192;27;20047;-30
2023/06/15 06:44:22;;;;;;;4.28;1.75;;;27.00;99.90;;;;;;5136600;27;20058;-30
2023/06/15 06:46:48;;;;;;;5.13;2.17;;;26.90;99.90;;;;;;5136952;27;20046;-29
2023/06/15 06:49:13;;;;;;;3.78;2.00;;;26.90;99.90;;;;;;5137130;27;20047;-29
2023/06/15 06:51:39;;;;;;;6.40;2.22;;;27.10;99.90;;;;;;5137262;27;20047;-30
2023/06/15 06:54:05;;;;;;;4.88;2.03;;;27.20;99.90;;;;;;5136797;27;20058;-30
2023/06/15 06:56:31;;;;;;;3.45;2.20;;;27.20;99.90;;;;;;5136685;27;20043;-29
2023/06/15 06:58:57;;;;;;;4.22;2.03;;;27.30;99.90;;;;;;5118285;27;20035;-29
2023/06/15 07:01:24;;;;;;;3.17;1.85;;;27.40;99.90;;;;;;5137088;27;20475;-29
2023/06/15 07:03:50;;;;;;;3.90;1.80;;;27.40;99.90;;;;;;5136492;27;20051;-30
2023/06/15 07:06:15;;;;;;;5.05;1.70;;;27.70;99.90;;;;;;5118387;27;20054;-29
2023/06/15 07:08:42;;;;;;;3.30;1.73;;;28.00;99.90;;;;;;5136159;27;20424;-29
2023/06/15 07:11:08;;;;;;;4.20;1.73;;;28.50;99.90;;;;;;5136366;27;20051;-29
2023/06/15 07:13:34;;;;;;;2.47;1.65;;;28.60;99.90;;;;;;5101152;27;20043;-30
2023/06/15 07:16:00;;;;;;;4.80;1.63;;;29.00;99.90;;;;;;5136321;27;20510;-29
2023/06/15 07:18:25;;;;;;;4.63;2.40;;;29.10;99.90;;;;;;5136114;27;20140;-29
2023/06/15 07:20:55;;;;;;;5.28;1.88;;;29.00;99.90;;;;;;5136448;27;20086;-29
2023/06/15 07:23:25;;;;;;;5.30;1.80;;;29.40;99.90;;;;;;5118286;27;20388;-29
2023/06/15 07:25:52;;;;;;;7.35;1.83;;;29.40;99.90;;;;;;5136714;27;20043;-29
2023/06/15 07:28:18;;;;;;;4.45;1.77;;;29.00;99.90;;;;;;5118766;27;20073;-29
2023/06/15 07:30:46;;;;;;;5.43;1.50;;;29.30;99.90;;;;;;5136015;27;20129;-29
2023/06/15 07:33:12;;;;;;;4.47;1.55;;;29.40;99.90;;;;;;5118637;27;20047;-29
2023/06/15 07:35:37;;;;;;;5.15;1.92;;;29.50;99.90;;;;;;5135879;27;20386;-29
2023/06/15 07:38:03;;;;;;;5.80;2.03;;;29.80;99.90;;;;;;5136385;27;20035;-29
2023/06/15 07:40:29;;;;;;;7.10;1.90;;;29.80;99.90;;;;;;5135323;27;20409;-30
2023/06/15 07:42:55;;;;;;;4.70;1.70;;;29.80;99.90;;;;;;5135830;27;20049;-29
2023/06/15 07:45:21;;;;;;;6.15;1.85;;;29.70;99.90;;;;;;5135714;27;20100;-29
2023/06/15 07:47:47;;;;;;;4.43;2.25;;;29.50;99.90;;;;;;5135953;27;20541;-30
2023/06/15 07:50:12;;;;;;;3.45;1.50;;;29.60;99.90;;;;;;5135699;27;20423;-29
2023/06/15 07:52:38;;;;;;;5.93;2.03;;;29.70;99.90;;;;;;5135662;27;20054;-29
2023/06/15 07:55:04;;;;;;;7.60;1.77;;;29.70;99.90;;;;;;5116997;27;20088;-29
2023/06/15 07:57:30;;;;;;;2.70;1.50;;;29.40;99.90;;;;;;5117516;27;20484;-29
2023/06/15 07:59:57;;;;;;;2.45;1.58;;;29.60;99.90;;;;;;5135503;27;20050;-29
2023/06/15 08:02:23;;;;;;;3.53;1.60;;;29.30;99.90;;;;;;5136322;27;20054;-29
2023/06/15 08:04:49;;;;;;;2.75;1.48;;;29.10;99.90;;;;;;5136204;27;20065;-29
2023/06/15 08:07:15;;;;;;;3.53;1.50;;;29.10;99.90;;;;;;5135954;27;20465;-29
2023/06/15 08:09:42;;;;;;;5.97;1.92;;;29.10;99.90;;;;;;5135294;27;20043;-29
2023/06/15 08:12:09;;;;;;;3.10;1.85;;;29.10;99.90;;;;;;5135854;27;20039;-29
2023/06/15 08:14:35;;;;;;;5.18;1.80;;;29.10;99.90;;;;;;5135217;27;20130;-29
2023/06/15 08:17:02;;;;;;;4.95;1.67;;;29.40;99.90;;;;;;5135182;27;20054;-29
2023/06/15 08:19:27;;;;;;;4.97;1.85;;;29.80;99.90;;;;;;5134449;27;20107;-29
2023/06/15 08:21:54;;;;;;;3.25;1.83;;;29.80;99.90;;;;;;5134973;27;20043;-29
2023/06/15 08:24:19;;;;;;;2.75;1.70;;;29.80;99.90;;;;;;5134994;27;20051;-30
2023/06/15 08:26:45;;;;;;;4.68;1.98;;;29.70;99.90;;;;;;5116715;27;20373;-29
2023/06/15 08:29:11;;;;;;;4.97;1.83;;;29.50;99.90;;;;;;5100843;27;20513;-29
2023/06/15 08:31:38;;;;;;;4.05;1.70;;;29.70;99.90;;;;;;5134925;27;20050;-29
2023/06/15 08:34:03;;;;;;;4.07;2.08;;;29.90;99.90;;;;;;5135428;27;20039;-29
2023/06/15 08:36:29;;;;;;;4.50;1.80;;;29.90;99.90;;;;;;5135023;27;20046;-29
2023/06/15 08:38:56;;;;;;;5.50;2.00;;;29.80;99.90;;;;;;5134457;27;20092;-30
2023/06/15 08:41:25;;;;;;;4.55;1.83;;;29.80;99.90;;;;;;5134632;27;20051;-29
2023/06/15 08:43:53;;;;;;;5.38;2.15;;;30.20;99.90;;;;;;5134453;27;20485;-29
2023/06/15 08:46:19;;;;;;;4.45;1.98;;;30.50;99.90;;;;;;5116498;27;20430;-29
2023/06/15 08:48:50;;;;;;;2.90;1.60;;;30.80;99.90;;;;;;5135039;27;20084;-29
2023/06/15 08:51:16;;;;;;;5.30;1.83;;;30.80;99.90;;;;;;5134719;27;20047;-30
2023/06/15 08:53:45;;;;;;;7.40;2.17;;;30.20;99.90;;;;;;5116593;28;20058;-30
2023/06/15 08:56:11;;;;;;;1.77;1.55;;;30.30;99.90;;;;;;5134666;28;20057;-30
2023/06/15 08:58:37;;;;;;;4.22;1.70;;;30.60;99.90;;;;;;5134496;28;20039;-29
2023/06/15 09:01:05;;;;;;;2.67;1.67;;;30.50;99.90;;;;;;5134623;28;20039;-29
2023/06/15 09:03:36;;;;;;;2.67;1.42;;;30.60;99.90;;;;;;5099592;28;20400;-29
2023/06/15 09:06:02;;;;;;;4.28;1.70;;;31.10;99.90;;;;;;5134664;28;20039;-29
2023/06/15 09:08:28;;;;;;;5.75;1.45;;;31.40;99.90;;;;;;5135135;28;20046;-30
2023/06/15 09:11:09;;;;;;;2.55;2.10;;;31.50;99.90;;;;;;5135288;28;20447;-29
2023/06/15 09:13:35;;;;;;;4.40;1.60;;;31.00;99.90;;;;;;5116149;28;20125;-29
2023/06/15 09:16:02;;;;;;;5.13;1.83;;;30.90;99.90;;;;;;5115801;28;20400;-30
2023/06/15 09:18:28;;;;;;;6.43;1.20;;;30.80;99.90;;;;;;5134313;28;20040;-29
2023/06/15 09:21:00;;;;;;;3.03;1.70;;;30.50;99.90;;;;;;5134321;28;20069;-29
2023/06/15 09:23:26;;;;;;;3.28;1.73;;;30.60;99.90;;;;;;5116141;27;20046;-29
2023/06/15 09:25:54;;;;;;;3.45;1.80;;;30.50;99.90;;;;;;5116222;28;20430;-30
2023/06/15 09:28:27;;;;;;;4.20;1.98;;;30.80;99.90;;;;;;5134341;28;20523;-30
2023/06/15 09:30:57;;;;;;;3.80;1.92;;;31.30;99.90;;;;;;5135168;27;20043;-30
2023/06/15 09:33:23;;;;;;;5.35;2.00;;;31.10;99.90;;;;;;5139218;27;20051;-29
2023/06/15 09:36:06;;;;;;;2.55;1.88;;;31.30;99.90;;;;;;5139147;27;20050;-30
2023/06/15 09:38:46;;;;;;;4.47;2.20;;;31.50;99.90;;;;;;5139100;27;20126;-29
2023/06/15 09:41:14;;;;;;;5.40;2.00;;;31.50;99.90;;;;;;5102740;27;20493;-31
2023/06/15 09:43:40;;;;;;;5.47;1.88;;;31.50;99.90;;;;;;5138129;27;20058;-30
2023/06/15 09:46:11;;;;;;;3.70;1.98;;;31.60;99.90;;;;;;5138020;27;20049;-31
2023/06/15 09:48:38;;;;;;;5.10;2.20;;;31.40;99.90;;;;;;5137958;27;20063;-29
2023/06/15 09:51:03;;;;;;;4.63;1.88;;;31.70;99.90;;;;;;5137969;27;20039;-30
2023/06/15 09:53:31;;;;;;;6.05;2.03;;;32.20;99.90;;;;;;5102543;27;20054;-31
2023/06/15 09:55:58;;;;;;;3.05;1.90;;;32.10;99.90;;;;;;5120594;27;20203;-29
2023/06/15 09:58:24;;;;;;;4.78;1.95;;;32.00;99.90;;;;;;5138647;27;20096;-29
2023/06/15 10:00:52;;;;;;;5.43;1.90;;;30.90;99.90;;;;;;5120115;27;20123;-30
2023/06/15 10:03:22;;;;;;;2.67;1.52;;;31.30;99.90;;;;;;5137856;27;20130;-30
2023/06/15 10:05:54;;;;;;;4.93;1.73;;;31.20;99.90;;;;;;5137709;27;20047;-29
2023/06/15 10:08:24;;;;;;;4.95;2.10;;;30.90;99.90;;;;;;5119955;27;20047;-29
2023/06/15 10:10:51;;;;;;;3.65;1.83;;;31.40;99.90;;;;;;5103218;27;20385;-30
2023/06/15 10:13:42;;;;;;;8.25;1.50;;;31.60;99.90;;;;;;5137547;27;20054;-30
2023/06/15 10:16:11;;;;;;;4.13;1.80;;;32.00;99.90;;;;;;5137559;27;20050;-30
2023/06/15 10:18:36;;;;;;;2.30;1.67;;;32.00;99.90;;;;;;5137393;27;20046;-30
2023/06/15 10:21:05;;;;;;;5.82;2.20;;;31.90;99.90;;;;;;5137347;27;20039;-30
2023/06/15 10:23:32;;;;;;;4.68;1.83;;;31.60;99.90;;;;;;5137297;27;20053;-30
2023/06/15 10:25:58;;;;;;;3.38;1.75;;;31.50;99.90;;;;;;5137301;27;20039;-30
2023/06/15 10:28:32;;;;;;;4.13;1.90;;;31.70;99.90;;;;;;5118934;27;20079;-30
2023/06/15 10:31:07;;;;;;;3.80;1.83;;;31.80;99.90;;;;;;5119288;27;20086;-31
2023/06/15 10:33:40;;;;;;;5.63;1.73;;;32.20;99.90;;;;;;5137227;27;20043;-30
2023/06/15 10:36:25;;;;;;;3.78;1.90;;;32.50;99.90;;;;;;5119014;27;20504;-30
2023/06/15 10:39:01;;;;;;;3.25;1.95;;;32.50;99.90;;;;;;5118817;27;20050;-30
2023/06/15 10:41:27;;;;;;;5.07;1.90;;;32.80;99.90;;;;;;5136845;27;20493;-29
2023/06/15 10:43:58;;;;;;;2.50;1.77;;;32.70;99.90;;;;;;5118259;27;20074;-30
2023/06/15 10:46:30;;;;;;;3.10;1.75;;;32.80;99.90;;;;;;5136999;27;20078;-30
2023/06/15 10:49:05;;;;;;;4.18;1.83;;;32.90;99.90;;;;;;5136935;27;20062;-31
2023/06/15 10:51:35;;;;;;;3.60;1.75;;;32.80;99.90;;;;;;5119673;27;20089;-29
2023/06/15 10:54:05;;;;;;;4.45;2.10;;;32.30;99.90;;;;;;5137030;27;20450;-29
2023/06/15 10:56:31;;;;;;;4.82;1.98;;;31.90;99.90;;;;;;5137330;27;20431;-30
2023/06/15 10:58:59;;;;;;;4.55;2.00;;;32.20;99.90;;;;;;5136558;27;20104;-29
2023/06/15 11:01:29;;;;;;;3.58;1.70;;;31.70;99.90;;;;;;5118422;27;20047;-30
2023/06/15 11:03:56;;;;;;;3.42;2.25;;;32.00;99.90;;;;;;5136629;27;20093;-30
2023/06/15 11:06:29;;;;;;;2.58;1.73;;;32.40;99.90;;;;;;5136566;27;20111;-30
2023/06/15 11:09:04;;;;;;;2.88;1.88;;;32.50;99.90;;;;;;5137400;27;20069;-29
2023/06/15 11:11:32;;;;;;;4.05;2.08;;;32.80;99.90;;;;;;5137304;27;20152;-29
2023/06/15 11:14:04;;;;;;;3.70;2.25;;;33.00;99.90;;;;;;5136392;27;20043;-29
2023/06/15 11:16:32;;;;;;;2.83;1.77;;;33.00;99.90;;;;;;5137266;27;20043;-28
2023/06/15 11:19:13;;;;;;;3.22;2.00;;;32.70;99.90;;;;;;5136216;27;20078;-28
2023/06/15 11:21:40;;;;;;;3.13;1.83;;;32.50;99.90;;;;;;5136859;27;20043;-29
2023/06/15 11:24:06;;;;;;;5.88;1.65;;;31.60;99.90;;;;;;5118039;27;20126;-29
2023/06/15 11:26:34;;;;;;;3.22;1.98;;;31.70;99.90;;;;;;5118382;27;20051;-28
2023/06/15 11:29:03;;;;;;;5.80;2.50;;;32.00;99.90;;;;;;5136097;27;20043;-29
2023/06/15 11:31:31;;;;;;;11.55;1.92;;;32.00;99.90;;;;;;5117776;27;20047;-29
2023/06/15 11:33:57;;;;;;;3.35;1.70;;;32.30;99.90;;;;;;5136037;27;20051;-29
2023/06/15 11:36:23;;;;;;;9.60;2.55;;;32.60;99.90;;;;;;5135897;27;20086;-29
2023/06/15 11:38:49;;;;;;;4.03;1.88;;;32.80;99.90;;;;;;5135845;27;20036;-29
2023/06/15 11:41:15;;;;;;;2.78;1.70;;;33.00;99.90;;;;;;5135826;27;20062;-29
2023/06/15 11:43:45;;;;;;;2.97;1.58;;;33.20;99.90;;;;;;5117754;27;20051;-29
2023/06/15 11:46:16;;;;;;;3.28;1.60;;;32.90;99.90;;;;;;5135898;27;20118;-29
2023/06/15 11:48:45;;;;;;;4.95;1.80;;;32.70;99.90;;;;;;5118127;27;20043;-28
2023/06/15 11:51:13;;;;;;;2.85;1.63;;;31.90;99.90;;;;;;5135764;27;20047;-28
2023/06/15 11:53:40;;;;;;;4.15;1.95;;;31.20;99.90;;;;;;5135545;27;20051;-28
2023/06/15 11:56:16;;;;;;;2.22;1.58;;;31.10;99.90;;;;;;5134345;27;20047;-29
2023/06/15 11:58:47;;;;;;;5.68;1.80;;;31.20;99.90;;;;;;5136070;27;20082;-29
2023/06/15 12:01:14;;;;;;;3.22;1.90;;;31.50;99.90;;;;;;5136022;27;20088;-29
2023/06/15 12:03:47;;;;;;;4.38;1.38;;;31.60;99.90;;;;;;5135489;27;20100;-28
2023/06/15 12:06:20;;;;;;;2.53;1.52;;;31.70;99.90;;;;;;5118113;27;20135;-28
2023/06/15 12:08:50;;;;;;;2.92;1.90;;;31.60;99.90;;;;;;5135643;27;20051;-30
2023/06/15 12:11:21;;;;;;;3.83;1.73;;;31.70;99.90;;;;;;5135811;27;20053;-28
2023/06/15 12:13:47;;;;;;;3.38;1.60;;;31.50;99.90;;;;;;5135131;27;20539;-28
2023/06/15 12:16:14;;;;;;;7.22;2.55;;;31.40;99.90;;;;;;5135051;27;20043;-29
2023/06/15 12:18:39;;;;;;;3.67;1.77;;;31.80;99.90;;;;;;5100336;27;20354;-29
2023/06/15 12:21:05;;;;;;;3.65;2.08;;;31.70;99.90;;;;;;5135301;27;20039;-29
2023/06/15 12:23:32;;;;;;;5.35;2.05;;;31.70;99.90;;;;;;5135021;27;20047;-29
2023/06/15 12:26:00;;;;;;;6.05;1.88;;;31.90;99.90;;;;;;5135096;27;20050;-28
2023/06/15 12:28:26;;;;;;;2.80;2.13;;;31.70;99.90;;;;;;5134965;27;20039;-29
2023/06/15 12:30:58;;;;;;;3.60;2.10;;;31.90;99.90;;;;;;5134940;27;20484;-28
2023/06/15 12:33:25;;;;;;;2.15;1.75;;;32.00;99.90;;;;;;5117710;27;20438;-29
2023/06/15 12:35:52;;;;;;;5.18;1.77;;;31.90;99.90;;;;;;5134874;27;20054;-28
2023/06/15 12:38:19;;;;;;;3.97;1.75;;;31.70;99.90;;;;;;5135385;27;20046;-28
2023/06/15 12:40:45;;;;;;;4.72;2.00;;;31.40;99.90;;;;;;5134686;27;20097;-28
2023/06/15 12:43:11;;;;;;;7.07;2.15;;;31.80;99.90;;;;;;5134789;27;20047;-29
2023/06/15 12:45:37;;;;;;;2.47;2.10;;;31.50;99.90;;;;;;5135630;27;20039;-29
2023/06/15 12:48:04;;;;;;;2.60;1.90;;;31.60;99.90;;;;;;5116912;27;20389;-29